createdAt,value
2022-08-05T00:01:27.726Z,30.49
2022-08-05T00:03:54.597Z,30.47
2022-08-05T00:06:30.661Z,30.49
2022-08-05T00:09:00.432Z,30.40
2022-08-05T00:11:30.249Z,30.34
2022-08-05T00:13:57.278Z,30.42
2022-08-05T00:16:35.692Z,30.31
2022-08-05T00:19:10.232Z,30.24
2022-08-05T00:21:36.578Z,30.09
2022-08-05T00:24:05.089Z,30.17
2022-08-05T00:26:37.218Z,30.18
2022-08-05T00:29:03.558Z,30.17
2022-08-05T00:31:53.427Z,30.17
2022-08-05T00:34:53.694Z,30.20
2022-08-05T00:37:10.806Z,30.17
2022-08-05T00:39:44.220Z,29.83
2022-08-05T00:42:38.287Z,29.84
2022-08-05T00:45:08.449Z,29.60
2022-08-05T00:47:56.381Z,29.27
2022-08-05T00:50:22.453Z,29.21
2022-08-05T00:52:52.153Z,28.91
2022-08-05T00:55:19.802Z,28.58
2022-08-05T00:57:58.399Z,28.57
2022-08-05T01:00:26.269Z,28.65
2022-08-05T01:02:52.793Z,28.76
2022-08-05T01:05:19.590Z,28.80
2022-08-05T01:08:42.368Z,28.86
2022-08-05T01:10:40.388Z,28.81
2022-08-05T01:13:57.358Z,28.78
2022-08-05T01:16:30.505Z,28.67
2022-08-05T01:19:06.581Z,28.71
2022-08-05T01:21:51.129Z,28.60
2022-08-05T01:24:51.527Z,28.62
2022-08-05T01:27:28.915Z,28.70
2022-08-05T01:30:04.020Z,28.40
2022-08-05T01:32:33.382Z,28.18
2022-08-05T01:35:10.560Z,27.98
2022-08-05T01:37:45.392Z,27.62
2022-08-05T01:40:14.199Z,27.54
2022-08-05T01:42:45.941Z,27.42
2022-08-05T01:45:15.585Z,27.38
2022-08-05T01:47:46.219Z,27.48
2022-08-05T01:50:28.638Z,27.39
2022-08-05T01:52:59.845Z,27.44
2022-08-05T01:55:30.719Z,27.20
2022-08-05T01:58:13.574Z,27.09
2022-08-05T02:00:48.624Z,27.16
2022-08-05T02:03:32.138Z,27.24
2022-08-05T02:06:03.530Z,27.10
2022-08-05T02:08:54.821Z,27.04
2022-08-05T02:11:32.859Z,26.90
2022-08-05T02:14:17.316Z,26.76
2022-08-05T02:16:53.159Z,26.77
2022-08-05T02:19:27.303Z,26.85
2022-08-05T02:22:25.650Z,26.83
2022-08-05T02:25:00.207Z,26.82
2022-08-05T02:27:30.135Z,26.85
2022-08-05T02:30:13.984Z,26.88
2022-08-05T02:32:43.313Z,27.06
2022-08-05T02:35:15.453Z,27.16
2022-08-05T02:37:53.940Z,27.25
2022-08-05T02:40:22.896Z,26.96
2022-08-05T02:42:54.147Z,26.71
2022-08-05T02:45:23.870Z,26.62
2022-08-05T02:48:07.304Z,26.58
2022-08-05T02:50:43.982Z,26.52
2022-08-05T02:53:16.100Z,26.69
2022-08-05T02:55:52.178Z,26.68
2022-08-05T02:58:23.137Z,26.63
2022-08-05T03:00:56.256Z,26.53
2022-08-05T03:03:23.411Z,26.57
2022-08-05T03:06:55.330Z,26.46
2022-08-05T03:08:38.982Z,26.43
2022-08-05T03:11:55.383Z,26.42
2022-08-05T03:14:07.898Z,26.48
2022-08-05T03:16:35.733Z,26.20
2022-08-05T03:19:12.570Z,26.21
2022-08-05T03:21:49.624Z,26.37
2022-08-05T03:24:29.404Z,25.98
2022-08-05T03:26:58.505Z,25.88
2022-08-05T03:29:24.853Z,25.74
2022-08-05T03:32:12.901Z,25.71
2022-08-05T03:34:42.154Z,25.67
2022-08-05T03:37:18.379Z,25.64
2022-08-05T03:40:01.172Z,25.44
2022-08-05T03:42:28.895Z,25.63
2022-08-05T03:44:55.762Z,25.68
2022-08-05T03:47:23.789Z,25.79
2022-08-05T03:49:51.375Z,25.77
2022-08-05T03:52:37.588Z,25.81
2022-08-05T03:56:05.239Z,26.00
2022-08-05T03:58:09.059Z,25.99
2022-08-05T04:00:38.969Z,25.95
2022-08-05T04:03:26.764Z,25.93
2022-08-05T04:05:57.632Z,25.71
2022-08-05T04:08:35.301Z,25.63
2022-08-05T04:11:04.626Z,25.62
2022-08-05T04:13:50.909Z,25.82
2022-08-05T04:16:25.275Z,26.15
2022-08-05T04:18:58.529Z,26.06
2022-08-05T04:22:09.301Z,26.27
2022-08-05T04:24:19.767Z,26.50
2022-08-05T04:26:49.935Z,26.86
2022-08-05T04:29:16.439Z,27.18
2022-08-05T04:31:43.018Z,27.33
2022-08-05T04:34:31.870Z,27.35
2022-08-05T04:36:55.867Z,26.97
2022-08-05T04:39:22.502Z,26.59
2022-08-05T04:41:51.002Z,26.24
2022-08-05T04:44:28.979Z,26.14
2022-08-05T04:46:56.647Z,25.95
2022-08-05T04:49:24.579Z,26.00
2022-08-05T04:52:04.859Z,26.08
2022-08-05T04:54:34.104Z,26.43
2022-08-05T04:57:00.437Z,26.66
2022-08-05T04:59:39.100Z,26.84
2022-08-05T05:02:36.166Z,26.92
2022-08-05T05:05:02.737Z,27.00
2022-08-05T05:07:32.876Z,26.97
2022-08-05T05:10:05.230Z,27.00
2022-08-05T05:12:32.094Z,27.12
2022-08-05T05:14:58.424Z,27.25
2022-08-05T05:17:55.864Z,27.07
2022-08-05T05:20:13.179Z,26.91
2022-08-05T05:22:40.801Z,26.90
2022-08-05T05:25:16.782Z,26.95
2022-08-05T05:27:45.820Z,27.08
2022-08-05T05:30:29.466Z,27.29
2022-08-05T05:33:00.385Z,27.42
2022-08-05T05:35:29.089Z,27.51
2022-08-05T05:38:03.418Z,27.56
2022-08-05T05:40:32.672Z,27.61
2022-08-05T05:43:02.086Z,27.49
2022-08-05T05:45:29.141Z,27.60
2022-08-05T05:48:07.007Z,27.70
2022-08-05T05:50:41.112Z,27.73
2022-08-05T05:53:21.506Z,27.87
2022-08-05T05:55:51.839Z,27.83
2022-08-05T05:58:31.707Z,27.69
2022-08-05T06:01:12.237Z,27.70
2022-08-05T06:04:00.522Z,27.62
2022-08-05T06:06:27.847Z,27.61
2022-08-05T06:08:58.014Z,27.65
2022-08-05T06:11:24.520Z,27.75
2022-08-05T06:13:54.029Z,27.82
2022-08-05T06:16:30.902Z,27.90
2022-08-05T06:19:01.865Z,27.89
2022-08-05T06:21:36.770Z,28.00
2022-08-05T06:24:04.476Z,28.14
2022-08-05T06:26:31.894Z,28.04
2022-08-05T06:29:03.335Z,28.14
2022-08-05T06:31:32.785Z,28.06
2022-08-05T06:34:07.001Z,28.16
2022-08-05T06:36:45.992Z,28.05
2022-08-05T06:39:21.865Z,27.96
2022-08-05T06:41:51.005Z,28.11
2022-08-05T06:44:18.644Z,28.27
2022-08-05T06:46:51.107Z,27.58
2022-08-05T06:49:17.792Z,27.75
2022-08-05T06:51:45.507Z,27.94
2022-08-05T06:54:18.972Z,28.03
2022-08-05T06:56:54.708Z,28.07
2022-08-05T06:59:38.746Z,28.27
2022-08-05T07:02:08.853Z,28.21
2022-08-05T07:04:35.291Z,28.43
2022-08-05T07:07:03.090Z,28.47
2022-08-05T07:09:40.432Z,28.68
2022-08-05T07:12:07.799Z,28.83
2022-08-05T07:14:54.097Z,28.94
2022-08-05T07:17:58.538Z,29.06
2022-08-05T07:22:54.130Z,29.25
2022-08-05T07:25:23.515Z,29.35
2022-08-05T07:28:08.227Z,29.42
2022-08-05T07:30:39.765Z,29.35
2022-08-05T07:33:16.074Z,29.51
2022-08-05T07:36:05.300Z,29.55
2022-08-05T07:38:33.720Z,29.58
2022-08-05T07:42:08.072Z,29.70
2022-08-05T07:43:58.032Z,29.83
2022-08-05T07:46:30.505Z,29.80
2022-08-05T07:49:02.124Z,29.79
2022-08-05T07:51:41.110Z,29.94
2022-08-05T07:54:15.925Z,30.07
2022-08-05T07:57:01.950Z,30.12
2022-08-05T07:59:39.952Z,30.14
2022-08-05T08:02:16.286Z,30.15
2022-08-05T08:04:45.027Z,30.06
2022-08-05T08:07:12.070Z,29.96
2022-08-05T08:09:38.461Z,30.06
2022-08-05T08:12:11.508Z,29.94
2022-08-05T08:14:46.649Z,30.05
2022-08-05T08:17:16.043Z,30.32
2022-08-05T08:20:21.419Z,30.32
2022-08-05T08:22:30.861Z,30.35
2022-08-05T08:25:02.808Z,30.56
2022-08-05T08:27:40.057Z,30.60
2022-08-05T08:30:30.058Z,30.63
2022-08-05T08:32:58.328Z,30.58
2022-08-05T08:35:34.636Z,30.69
2022-08-05T08:38:01.572Z,30.75
2022-08-05T08:40:28.693Z,30.74
2022-08-05T08:42:56.571Z,30.88
2022-08-05T08:45:26.959Z,30.97
2022-08-05T08:48:06.695Z,31.06
2022-08-05T08:51:03.372Z,31.05
2022-08-05T08:53:34.240Z,31.14
2022-08-05T08:56:05.984Z,30.95
2022-08-05T08:58:43.033Z,30.96
2022-08-05T09:01:16.483Z,31.07
2022-08-05T09:03:46.748Z,31.07
2022-08-05T09:06:17.208Z,31.22
2022-08-05T09:08:46.710Z,30.91
2022-08-05T09:11:14.741Z,31.04
2022-08-05T09:14:09.069Z,31.24
2022-08-05T09:16:31.803Z,31.19
2022-08-05T09:18:59.282Z,31.35
2022-08-05T09:22:21.939Z,31.38
2022-08-05T09:24:15.414Z,31.45
2022-08-05T09:26:46.403Z,31.46
2022-08-05T09:29:18.738Z,31.57
2022-08-05T09:32:41.209Z,31.42
2022-08-05T09:34:54.907Z,31.46
2022-08-05T09:38:12.713Z,31.33
2022-08-05T09:40:40.994Z,31.17
2022-08-05T09:43:40.214Z,31.27
2022-08-05T09:46:32.851Z,31.51
2022-08-05T09:49:19.051Z,31.66
2022-08-05T09:51:50.060Z,31.81
2022-08-05T09:54:21.236Z,31.87
2022-08-05T09:56:55.543Z,31.98
2022-08-05T09:59:24.246Z,31.99
2022-08-05T10:01:57.933Z,32.16
2022-08-05T10:04:35.143Z,32.25
2022-08-05T10:07:06.053Z,32.35
2022-08-05T10:10:04.254Z,32.17
2022-08-05T10:12:50.060Z,32.32
2022-08-05T10:15:22.913Z,32.34
2022-08-05T10:18:10.218Z,32.30
2022-08-05T10:21:08.542Z,32.40
2022-08-05T10:23:55.550Z,32.43
2022-08-05T10:26:32.598Z,32.44
2022-08-05T10:29:00.561Z,32.54
2022-08-05T10:32:55.363Z,32.52
2022-08-05T10:34:13.712Z,32.54
2022-08-05T10:36:42.092Z,32.53
2022-08-05T10:39:24.898Z,32.63
2022-08-05T10:42:32.477Z,32.61
2022-08-05T10:45:02.018Z,32.53
2022-08-05T10:48:30.094Z,32.44
2022-08-05T10:51:00.296Z,32.73
2022-08-05T10:53:39.404Z,32.81
2022-08-05T10:56:25.522Z,32.93
2022-08-05T10:58:55.705Z,32.93
2022-08-05T11:02:14.601Z,32.71
2022-08-05T11:04:55.613Z,32.68
2022-08-05T11:07:32.761Z,32.76
2022-08-05T11:10:03.659Z,32.82
2022-08-05T11:12:43.821Z,33.11
2022-08-05T11:16:00.347Z,33.24
2022-08-05T11:18:32.530Z,33.06
2022-08-05T11:21:02.888Z,33.27
2022-08-05T11:24:29.775Z,33.23
2022-08-05T11:27:29.174Z,33.50
2022-08-05T11:30:15.708Z,33.44
2022-08-05T11:32:42.136Z,33.23
2022-08-05T11:36:07.858Z,33.22
2022-08-05T11:38:51.148Z,33.66
2022-08-05T11:41:56.154Z,33.82
2022-08-05T11:44:12.259Z,33.73
2022-08-05T11:46:58.178Z,33.69
2022-08-05T11:49:34.735Z,33.94
2022-08-05T11:52:01.852Z,34.06
2022-08-05T11:54:38.298Z,34.08
2022-08-05T11:57:39.397Z,34.08
2022-08-05T11:59:55.281Z,34.41
2022-08-05T12:02:33.059Z,34.51
2022-08-05T12:05:07.236Z,34.69
2022-08-05T12:08:10.384Z,34.82
2022-08-05T12:10:43.651Z,34.85
2022-08-05T12:13:18.780Z,34.97
2022-08-05T12:16:15.084Z,35.05
2022-08-05T12:18:49.033Z,34.92
2022-08-05T12:21:19.237Z,34.62
2022-08-05T12:24:27.888Z,34.53
2022-08-05T12:26:54.932Z,34.71
2022-08-05T12:29:23.793Z,34.73
2022-08-05T12:31:55.471Z,34.78
2022-08-05T12:34:26.642Z,34.77
2022-08-05T12:36:54.308Z,34.78
2022-08-05T12:39:23.649Z,34.57
2022-08-05T12:41:59.197Z,34.48
2022-08-05T12:44:33.006Z,34.04
2022-08-05T12:47:01.834Z,34.13
2022-08-05T12:50:04.071Z,34.18
2022-08-05T12:52:37.733Z,34.06
2022-08-05T12:55:23.046Z,33.78
2022-08-05T12:58:38.830Z,33.99
2022-08-05T13:02:00.416Z,34.15
2022-08-05T13:03:32.055Z,34.22
2022-08-05T13:05:58.998Z,34.37
2022-08-05T13:08:29.944Z,34.47
2022-08-05T13:11:02.791Z,34.47
2022-08-05T13:14:04.991Z,34.37
2022-08-05T13:16:20.151Z,34.43
2022-08-05T13:18:58.435Z,34.44
2022-08-05T13:21:28.300Z,34.53
2022-08-05T13:24:06.184Z,34.54
2022-08-05T13:26:35.408Z,34.61
2022-08-05T13:29:01.975Z,34.66
2022-08-05T13:31:33.847Z,34.71
2022-08-05T13:34:24.191Z,35.00
2022-08-05T13:36:55.652Z,35.03
2022-08-05T13:39:24.468Z,34.81
2022-08-05T13:42:14.736Z,34.68
2022-08-05T13:44:45.534Z,34.41
2022-08-05T13:47:35.970Z,34.54
2022-08-05T13:50:00.806Z,34.64
2022-08-05T13:52:31.166Z,34.78
2022-08-05T13:55:02.425Z,35.06
2022-08-05T13:57:50.988Z,35.11
2022-08-05T14:00:18.316Z,35.31
2022-08-05T14:02:53.103Z,35.56
2022-08-05T14:05:48.359Z,35.53
2022-08-05T14:08:20.451Z,35.79
2022-08-05T14:10:52.749Z,35.97
2022-08-05T14:13:26.216Z,36.05
2022-08-05T14:16:07.313Z,36.19
2022-08-05T14:18:35.780Z,36.34
2022-08-05T14:22:08.125Z,36.39
2022-08-05T14:23:50.944Z,36.47
2022-08-05T14:26:37.039Z,36.09
2022-08-05T14:29:04.683Z,36.35
2022-08-05T14:32:03.832Z,36.52
2022-08-05T14:34:17.948Z,36.59
2022-08-05T14:36:50.081Z,36.73
2022-08-05T14:39:23.539Z,36.73
2022-08-05T14:42:16.698Z,36.82
2022-08-05T14:44:36.579Z,36.83
2022-08-05T14:47:03.676Z,36.57
2022-08-05T14:49:56.375Z,36.62
2022-08-05T14:52:36.347Z,36.25
2022-08-05T14:55:02.870Z,36.53
2022-08-05T14:57:34.119Z,36.59
2022-08-05T15:00:16.281Z,36.93
2022-08-05T15:02:47.106Z,37.04
2022-08-05T15:05:14.079Z,36.81
2022-08-05T15:08:05.485Z,36.91
2022-08-05T15:10:28.789Z,37.18
2022-08-05T15:13:00.830Z,37.38
2022-08-05T15:15:55.802Z,37.43
2022-08-05T15:18:17.301Z,37.28
2022-08-05T15:20:43.867Z,37.41
2022-08-05T15:23:13.100Z,37.40
2022-08-05T15:25:52.738Z,37.62
2022-08-05T15:28:24.405Z,37.85
2022-08-05T15:30:54.292Z,37.77
2022-08-05T15:33:56.719Z,37.74
2022-08-05T15:36:09.094Z,37.88
2022-08-05T15:38:44.829Z,38.02
2022-08-05T15:41:22.533Z,38.09
2022-08-05T15:43:50.276Z,37.36
2022-08-05T15:46:18.858Z,37.13
2022-08-05T15:48:52.459Z,37.11
2022-08-05T15:52:04.355Z,37.09
2022-08-05T15:54:15.240Z,37.08
2022-08-05T15:56:42.201Z,36.90
2022-08-05T15:59:09.936Z,36.39
2022-08-05T16:01:52.322Z,36.19
2022-08-05T16:04:19.965Z,36.28
2022-08-05T16:06:46.372Z,35.63
2022-08-05T16:09:13.175Z,35.78
2022-08-05T16:11:43.311Z,35.22
2022-08-05T16:14:10.457Z,35.53
2022-08-05T16:16:43.962Z,35.57
2022-08-05T16:19:12.765Z,35.63
2022-08-05T16:22:00.560Z,35.59
2022-08-05T16:24:40.381Z,35.62
2022-08-05T16:27:08.667Z,35.83
2022-08-05T16:29:37.355Z,35.88
2022-08-05T16:32:06.221Z,35.84
2022-08-05T16:34:32.772Z,35.90
2022-08-05T16:36:59.210Z,34.85
2022-08-05T16:40:05.100Z,35.31
2022-08-05T16:42:14.084Z,35.41
2022-08-05T16:44:44.365Z,35.69
2022-08-05T16:47:28.631Z,35.59
2022-08-05T16:50:04.266Z,35.87
2022-08-05T16:52:33.487Z,36.30
2022-08-05T16:55:00.103Z,36.78
2022-08-05T16:57:42.936Z,36.90
2022-08-05T17:00:14.157Z,36.94
2022-08-05T17:02:52.197Z,36.95
2022-08-05T17:05:18.900Z,36.80
2022-08-05T17:07:54.729Z,36.66
2022-08-05T17:10:21.531Z,36.62
2022-08-05T17:12:57.309Z,36.62
2022-08-05T17:15:24.059Z,36.61
2022-08-05T17:17:55.960Z,36.53
2022-08-05T17:20:24.959Z,35.59
2022-08-05T17:22:55.290Z,34.33
2022-08-05T17:25:39.533Z,34.18
2022-08-05T17:28:06.695Z,32.14
2022-08-05T17:30:50.790Z,30.24
2022-08-05T17:33:18.661Z,28.79
2022-08-05T17:36:09.197Z,27.71
2022-08-05T17:38:32.777Z,27.57
2022-08-05T17:40:59.450Z,27.78
2022-08-05T17:43:47.013Z,28.19
2022-08-05T17:46:12.624Z,28.87
2022-08-05T17:48:39.965Z,29.33
2022-08-05T17:51:09.727Z,29.25
2022-08-05T17:53:36.167Z,29.16
2022-08-05T17:56:04.457Z,28.11
2022-08-05T17:58:32.597Z,26.92
2022-08-05T18:00:59.335Z,26.01
2022-08-05T18:03:59.348Z,25.36
2022-08-05T18:06:15.462Z,25.29
2022-08-05T18:08:45.089Z,25.60
2022-08-05T18:11:23.752Z,25.77
2022-08-05T18:13:59.560Z,26.06
2022-08-05T18:16:26.203Z,26.48
2022-08-05T18:18:52.615Z,26.67
2022-08-05T18:21:22.943Z,26.75
2022-08-05T18:23:53.749Z,26.81
2022-08-05T18:26:21.840Z,26.31
2022-08-05T18:28:54.757Z,26.33
2022-08-05T18:31:32.983Z,26.55
2022-08-05T18:34:02.651Z,26.73
2022-08-05T18:36:29.399Z,26.93
2022-08-05T18:38:56.073Z,27.05
2022-08-05T18:41:53.579Z,27.02
2022-08-05T18:44:10.891Z,26.96
2022-08-05T18:46:40.923Z,27.00
2022-08-05T18:49:30.732Z,26.98
2022-08-05T18:52:32.852Z,27.03
2022-08-05T18:55:00.084Z,26.91
2022-08-05T18:57:26.505Z,25.82
2022-08-05T19:00:20.309Z,24.84
2022-08-05T19:02:47.766Z,24.30
2022-08-05T19:06:11.210Z,23.64
2022-08-05T19:08:02.819Z,22.66
2022-08-05T19:10:30.333Z,22.14
2022-08-05T19:12:57.282Z,21.89
2022-08-05T19:15:59.816Z,22.29
2022-08-05T19:18:20.606Z,22.87
2022-08-05T19:20:51.951Z,23.31
2022-08-05T19:24:05.807Z,23.73
2022-08-05T19:26:04.883Z,24.18
2022-08-05T19:28:34.965Z,24.51
2022-08-05T19:31:05.853Z,24.87
2022-08-05T19:33:36.126Z,25.04
2022-08-05T19:36:07.004Z,25.11
2022-08-05T19:38:36.773Z,25.37
2022-08-05T19:41:07.296Z,25.51
2022-08-05T19:44:06.227Z,25.55
2022-08-05T19:46:29.539Z,25.64
2022-08-05T19:48:57.409Z,25.67
2022-08-05T19:52:08.741Z,25.57
2022-08-05T19:54:21.937Z,25.44
2022-08-05T19:56:57.710Z,25.53
2022-08-05T19:59:56.355Z,25.22
2022-08-05T20:02:10.460Z,25.22
2022-08-05T20:04:37.481Z,25.31
2022-08-05T20:07:13.020Z,25.39
2022-08-05T20:09:53.894Z,25.43
2022-08-05T20:12:23.655Z,25.40
2022-08-05T20:14:52.211Z,25.58
2022-08-05T20:17:19.239Z,25.62
2022-08-05T20:19:50.282Z,25.56
2022-08-05T20:22:16.712Z,25.71
2022-08-05T20:24:43.043Z,25.61
2022-08-05T20:27:11.289Z,25.75
2022-08-05T20:29:38.253Z,25.81
2022-08-05T20:32:06.483Z,25.69
2022-08-05T20:34:32.923Z,25.79
2022-08-05T20:37:00.666Z,25.66
2022-08-05T20:39:35.485Z,25.64
2022-08-05T20:42:04.151Z,25.62
2022-08-05T20:44:32.972Z,25.57
2022-08-05T20:47:06.762Z,25.58
2022-08-05T20:49:39.250Z,25.50
2022-08-05T20:52:07.166Z,25.62
2022-08-05T20:54:43.540Z,25.64
2022-08-05T20:57:42.213Z,25.63
2022-08-05T21:00:19.623Z,25.49
2022-08-05T21:02:57.698Z,25.56
2022-08-05T21:05:24.677Z,25.60
2022-08-05T21:07:52.396Z,25.48
2022-08-05T21:10:19.156Z,25.42
2022-08-05T21:13:08.216Z,25.49
2022-08-05T21:15:33.857Z,25.56
2022-08-05T21:18:00.482Z,25.62
2022-08-05T21:20:33.531Z,25.63
2022-08-05T21:23:00.753Z,25.59
2022-08-05T21:25:33.654Z,25.65
2022-08-05T21:28:02.283Z,25.73
2022-08-05T21:30:28.997Z,25.61
2022-08-05T21:32:55.324Z,25.72
2022-08-05T21:35:29.929Z,25.73
2022-08-05T21:38:09.127Z,25.39
2022-08-05T21:40:36.795Z,25.39
2022-08-05T21:43:08.295Z,25.36
2022-08-05T21:45:56.963Z,25.36
2022-08-05T21:48:24.529Z,25.36
2022-08-05T21:50:54.013Z,25.43
2022-08-05T21:53:20.811Z,25.47
2022-08-05T21:56:05.224Z,25.39
2022-08-05T21:58:33.662Z,25.39
2022-08-05T22:01:00.730Z,25.32
2022-08-05T22:03:52.200Z,25.35
2022-08-05T22:06:15.739Z,25.51
2022-08-05T22:08:42.582Z,25.54
2022-08-05T22:11:11.756Z,25.60
2022-08-05T22:14:34.264Z,25.52
2022-08-05T22:16:51.250Z,25.27
2022-08-05T22:19:56.357Z,25.17
2022-08-05T22:22:01.284Z,25.27
2022-08-05T22:24:52.208Z,25.21
2022-08-05T22:28:10.421Z,25.24
2022-08-05T22:30:24.741Z,25.20
2022-08-05T22:32:58.855Z,25.24
2022-08-05T22:35:25.239Z,25.34
2022-08-05T22:37:58.045Z,25.26
2022-08-05T22:40:26.201Z,25.25
2022-08-05T22:42:57.797Z,25.16
2022-08-05T22:45:26.256Z,24.86
2022-08-05T22:47:55.370Z,24.89
2022-08-05T22:50:27.675Z,24.86
2022-08-05T22:52:55.167Z,24.76
2022-08-05T22:55:23.617Z,24.68
2022-08-05T22:57:52.049Z,24.73
2022-08-05T23:00:20.764Z,24.39
2022-08-05T23:02:48.578Z,24.26
2022-08-05T23:05:15.935Z,24.47
2022-08-05T23:07:44.968Z,24.54
2022-08-05T23:10:12.083Z,24.82
2022-08-05T23:12:38.403Z,24.60
2022-08-05T23:15:08.883Z,24.72
2022-08-05T23:17:37.878Z,24.79
2022-08-05T23:20:23.588Z,24.71
2022-08-05T23:22:51.002Z,24.83
2022-08-05T23:25:52.053Z,24.71
2022-08-05T23:28:09.018Z,24.37
2022-08-05T23:30:40.418Z,23.71
2022-08-05T23:33:22.261Z,23.80
2022-08-05T23:35:55.878Z,24.16
2022-08-05T23:38:24.228Z,23.98
2022-08-05T23:40:52.667Z,24.21
2022-08-05T23:43:25.765Z,24.44
2022-08-05T23:46:21.062Z,24.53
2022-08-05T23:49:01.075Z,24.52
2022-08-05T23:51:53.596Z,24.58
2022-08-05T23:54:30.051Z,24.69
2022-08-05T23:57:03.950Z,24.67
